createdAt,value
2022-10-08T00:01:12.545Z,100790.84
2022-10-08T00:03:14.565Z,100785.03
2022-10-08T00:05:16.365Z,100787.75
2022-10-08T00:07:18.018Z,100785.84
2022-10-08T00:09:19.532Z,100783.91
2022-10-08T00:11:23.178Z,100782.47
2022-10-08T00:13:26.225Z,100782.00
2022-10-08T00:15:29.384Z,100785.50
2022-10-08T00:17:30.903Z,100787.44
2022-10-08T00:19:32.631Z,100781.50
2022-10-08T00:21:35.721Z,100782.00
2022-10-08T00:23:37.440Z,100785.03
2022-10-08T00:25:39.823Z,100780.25
2022-10-08T00:27:41.369Z,100787.75
2022-10-08T00:29:43.010Z,100774.44
2022-10-08T00:31:48.421Z,100781.50
2022-10-08T00:33:50.266Z,100783.13
2022-10-08T00:35:51.983Z,100785.84
2022-10-08T00:37:53.491Z,100787.13
2022-10-08T00:39:54.991Z,100779.56
2022-10-08T00:41:56.620Z,100795.03
2022-10-08T00:44:01.384Z,100787.63
2022-10-08T00:46:03.340Z,100783.75
2022-10-08T00:48:06.370Z,100781.50
2022-10-08T00:50:13.575Z,100783.13
2022-10-08T00:52:16.764Z,100785.03
2022-10-08T00:54:20.145Z,100775.56
2022-10-08T00:56:25.661Z,100783.63
2022-10-08T00:58:27.789Z,100781.38
2022-10-08T01:00:30.587Z,100778.94
2022-10-08T01:02:32.922Z,100782.97
2022-10-08T01:04:39.390Z,100782.16
2022-10-08T01:06:49.527Z,100779.91
2022-10-08T01:08:58.615Z,100781.03
2022-10-08T01:11:10.939Z,100782.16
2022-10-08T01:15:33.384Z,100786.03
2022-10-08T01:17:46.795Z,100772.84
2022-10-08T01:20:12.901Z,100777.03
2022-10-08T01:22:28.637Z,100773.19
2022-10-08T01:24:39.929Z,100770.75
2022-10-08T01:26:57.247Z,100781.22
2022-10-08T01:29:03.265Z,100788.94
2022-10-08T01:31:09.100Z,100782.66
2022-10-08T01:33:17.411Z,100784.28
2022-10-08T01:35:23.785Z,100785.53
2022-10-08T01:37:31.852Z,100786.84
2022-10-08T01:39:36.424Z,100785.09
2022-10-08T01:41:40.178Z,100794.06
2022-10-08T01:43:45.405Z,100791.69
2022-10-08T01:45:55.266Z,100795.53
2022-10-08T01:47:59.866Z,100799.06
2022-10-08T01:50:07.275Z,100802.59
2022-10-08T01:52:16.175Z,100800.19
2022-10-08T01:54:18.571Z,100800.19
2022-10-08T01:56:26.499Z,100797.44
2022-10-08T01:58:34.094Z,100794.72
2022-10-08T02:00:38.323Z,100792.31
2022-10-08T02:02:42.594Z,100788.81
2022-10-08T02:04:44.390Z,100792.31
2022-10-08T02:06:50.866Z,100788.63
2022-10-08T02:08:53.176Z,100787.72
2022-10-08T02:10:57.670Z,100788.50
2022-10-08T02:12:59.530Z,100788.69
2022-10-08T02:15:03.052Z,100786.28
2022-10-08T02:17:23.872Z,100785.16
2022-10-08T02:19:33.385Z,100785.47
2022-10-08T02:21:40.245Z,100794.81
2022-10-08T02:23:48.308Z,100793.53
2022-10-08T02:25:54.653Z,100799.00
2022-10-08T02:28:05.222Z,100800.41
2022-10-08T02:30:11.025Z,100789.19
2022-10-08T02:32:19.991Z,100792.22
2022-10-08T02:34:26.162Z,100785.47
2022-10-08T02:36:34.408Z,100793.19
2022-10-08T02:38:40.505Z,100789.66
2022-10-08T02:40:47.198Z,100792.25
2022-10-08T02:42:53.213Z,100796.09
2022-10-08T02:45:00.275Z,100798.50
2022-10-08T02:47:07.884Z,100797.72
2022-10-08T02:49:13.150Z,100801.72
2022-10-08T02:51:16.912Z,100802.84
2022-10-08T02:53:20.613Z,100811.03
2022-10-08T02:55:29.720Z,100806.34
2022-10-08T02:57:37.442Z,100813.75
2022-10-08T02:59:39.488Z,100811.66
2022-10-08T03:01:49.470Z,100808.16
2022-10-08T03:03:56.547Z,100811.19
2022-10-08T03:06:01.400Z,100812.84
2022-10-08T03:08:05.091Z,100814.44
2022-10-08T03:10:09.156Z,100820.34
2022-10-08T03:12:10.707Z,100807.50
2022-10-08T03:14:16.209Z,100813.28
2022-10-08T03:16:20.936Z,100813.63
2022-10-08T03:18:23.889Z,100811.72
2022-10-08T03:20:25.500Z,100819.56
2022-10-08T03:22:27.952Z,100823.06
2022-10-08T03:24:29.565Z,100825.34
2022-10-08T03:26:32.457Z,100830.47
2022-10-08T03:28:34.208Z,100835.59
2022-10-08T03:30:36.074Z,100841.06
2022-10-08T03:32:37.738Z,100838.66
2022-10-08T03:34:39.281Z,100835.44
2022-10-08T03:36:40.858Z,100839.63
2022-10-08T03:38:42.410Z,100836.28
2022-10-08T03:40:44.495Z,100841.09
2022-10-08T03:42:47.725Z,100844.59
2022-10-08T03:44:49.545Z,100845.09
2022-10-08T03:46:51.109Z,100851.53
2022-10-08T03:48:52.614Z,100854.88
2022-10-08T03:50:59.478Z,100849.63
2022-10-08T03:53:00.960Z,100852.97
2022-10-08T03:55:02.423Z,100846.25
2022-10-08T03:57:04.149Z,100844.63
2022-10-08T03:59:07.214Z,100847.50
2022-10-08T04:01:12.079Z,100846.88
2022-10-08T04:03:13.580Z,100849.94
2022-10-08T04:05:15.152Z,100862.28
2022-10-08T04:07:16.649Z,100857.94
2022-10-08T04:09:18.133Z,100862.44
2022-10-08T04:11:19.886Z,100861.44
2022-10-08T04:13:21.739Z,100864.50
2022-10-08T04:15:24.619Z,100868.84
2022-10-08T04:17:29.010Z,100873.81
2022-10-08T04:19:30.496Z,100877.81
2022-10-08T04:21:32.136Z,100872.66
2022-10-08T04:23:35.420Z,100869.44
2022-10-08T04:25:37.187Z,100867.69
2022-10-08T04:27:38.689Z,100874.22
2022-10-08T04:29:40.405Z,100865.09
2022-10-08T04:31:43.228Z,100874.56
2022-10-08T04:33:45.875Z,100868.13
2022-10-08T04:35:47.340Z,100871.50
2022-10-08T04:37:48.935Z,100867.66
2022-10-08T04:39:52.335Z,100865.56
2022-10-08T04:41:53.862Z,100874.34
2022-10-08T04:43:59.632Z,100876.59
2022-10-08T04:46:01.489Z,100869.25
2022-10-08T04:48:04.411Z,100871.97
2022-10-08T04:50:06.374Z,100866.50
2022-10-08T04:52:08.244Z,100868.75
2022-10-08T04:54:09.814Z,100870.97
2022-10-08T04:56:13.567Z,100878.66
2022-10-08T04:58:17.611Z,100874.66
2022-10-08T05:00:19.609Z,100878.34
2022-10-08T05:02:21.319Z,100885.38
2022-10-08T05:04:24.431Z,100881.84
2022-10-08T05:06:28.010Z,100876.72
2022-10-08T05:08:29.688Z,100882.50
2022-10-08T05:10:31.195Z,100885.53
2022-10-08T05:12:32.797Z,100889.84
2022-10-08T05:14:34.298Z,100893.41
2022-10-08T05:16:36.302Z,100887.63
2022-10-08T05:18:39.373Z,100895.47
2022-10-08T05:20:42.288Z,100885.31
2022-10-08T05:22:44.035Z,100891.53
2022-10-08T05:24:45.714Z,100898.59
2022-10-08T05:26:58.215Z,100896.47
2022-10-08T05:29:00.569Z,100898.59
2022-10-08T05:31:02.140Z,100900.97
2022-10-08T05:33:03.775Z,100899.03
2022-10-08T05:35:06.078Z,100906.22
2022-10-08T05:37:08.995Z,100906.88
2022-10-08T05:39:10.928Z,100902.59
2022-10-08T05:41:14.219Z,100909.94
2022-10-08T05:43:15.831Z,100915.38
2022-10-08T05:45:17.586Z,100919.22
2022-10-08T05:47:19.045Z,100922.25
2022-10-08T05:49:22.692Z,100930.09
2022-10-08T05:51:24.918Z,100928.66
2022-10-08T05:53:27.781Z,100927.22
2022-10-08T05:55:29.298Z,100929.94
2022-10-08T05:57:30.880Z,100933.44
2022-10-08T05:59:32.405Z,100929.63
2022-10-08T06:01:35.433Z,100930.09
2022-10-08T06:03:36.896Z,100935.56
2022-10-08T06:05:38.367Z,100937.78
2022-10-08T06:07:39.879Z,100937.50
2022-10-08T06:09:42.894Z,100942.63
2022-10-08T06:11:44.949Z,100943.44
2022-10-08T06:13:51.293Z,100945.84
2022-10-08T06:15:56.163Z,100953.00
2022-10-08T06:17:57.725Z,100953.81
2022-10-08T06:19:59.249Z,100958.03
2022-10-08T06:22:00.723Z,100961.25
2022-10-08T06:24:04.521Z,100953.06
2022-10-08T06:26:09.441Z,100964.75
2022-10-08T06:28:11.169Z,100957.84
2022-10-08T06:30:13.233Z,100964.28
2022-10-08T06:32:14.757Z,100958.84
2022-10-08T06:34:16.251Z,100967.47
2022-10-08T06:36:19.827Z,100964.28
2022-10-08T06:38:21.740Z,100967.47
2022-10-08T06:40:23.349Z,100966.69
2022-10-08T06:42:26.232Z,100970.69
2022-10-08T06:44:27.736Z,100964.13
2022-10-08T06:46:29.350Z,100972.13
2022-10-08T06:48:31.356Z,100971.03
2022-10-08T06:50:33.804Z,100969.72
2022-10-08T06:52:35.353Z,100972.56
2022-10-08T06:54:38.471Z,100975.47
2022-10-08T06:56:40.112Z,100982.03
2022-10-08T06:58:43.444Z,100984.97
2022-10-08T07:00:45.019Z,100987.69
2022-10-08T07:02:46.719Z,100992.00
2022-10-08T07:04:48.417Z,100989.16
2022-10-08T07:06:50.040Z,100992.06
2022-10-08T07:08:52.486Z,100996.72
2022-10-08T07:10:54.135Z,101003.78
2022-10-08T07:12:55.740Z,101001.16
2022-10-08T07:14:59.166Z,101008.56
2022-10-08T07:17:00.641Z,101007.34
2022-10-08T07:19:02.187Z,101007.69
2022-10-08T07:21:04.996Z,101010.47
2022-10-08T07:23:06.488Z,101010.34
2022-10-08T07:25:08.261Z,101009.88
2022-10-08T07:27:09.915Z,101008.66
2022-10-08T07:29:13.327Z,101018.50
2022-10-08T07:31:18.300Z,101007.25
2022-10-08T07:33:19.981Z,101019.63
2022-10-08T07:35:21.466Z,101011.94
2022-10-08T07:37:23.039Z,101018.50
2022-10-08T07:39:24.563Z,101024.78
2022-10-08T07:41:26.195Z,101025.41
2022-10-08T07:43:27.767Z,101030.41
2022-10-08T07:45:30.302Z,101032.50
2022-10-08T07:47:33.323Z,101031.25
2022-10-08T07:49:34.832Z,101026.94
2022-10-08T07:51:36.795Z,101035.94
2022-10-08T07:53:38.866Z,101033.72
2022-10-08T07:55:40.321Z,101035.19
2022-10-08T07:57:41.945Z,101039.03
2022-10-08T07:59:43.439Z,101035.84
2022-10-08T08:01:45.124Z,101041.97
2022-10-08T08:03:52.270Z,101039.41
2022-10-08T08:05:53.814Z,101046.78
2022-10-08T08:07:55.428Z,101039.72
2022-10-08T08:09:56.940Z,101044.38
2022-10-08T08:11:58.482Z,101045.66
2022-10-08T08:14:01.380Z,101046.13
2022-10-08T08:16:06.109Z,101053.38
2022-10-08T08:18:07.703Z,101052.72
2022-10-08T08:20:10.803Z,101049.66
2022-10-08T08:22:12.375Z,101052.88
2022-10-08T08:24:14.002Z,101062.69
2022-10-08T08:26:18.123Z,101059.44
2022-10-08T08:28:19.686Z,101066.53
2022-10-08T08:30:21.403Z,101066.69
2022-10-08T08:32:28.258Z,101072.16
2022-10-08T08:34:30.287Z,101067.81
2022-10-08T08:36:35.769Z,101069.56
2022-10-08T08:38:38.314Z,101067.78
2022-10-08T08:40:39.822Z,101068.59
2022-10-08T08:42:53.604Z,101072.75
2022-10-08T08:44:58.866Z,101071.00
2022-10-08T08:47:05.144Z,101075.63
2022-10-08T08:49:16.291Z,101075.91
2022-10-08T08:51:17.843Z,101067.81
2022-10-08T08:53:21.351Z,101074.72
2022-10-08T08:55:32.994Z,101080.16
2022-10-08T08:57:38.211Z,101075.56
2022-10-08T08:59:44.202Z,101078.41
2022-10-08T09:01:48.465Z,101081.63
2022-10-08T09:03:52.710Z,101080.59
2022-10-08T09:05:58.497Z,101079.44
2022-10-08T09:08:06.674Z,101077.59
2022-10-08T09:10:14.556Z,101080.94
2022-10-08T09:12:20.931Z,101078.41
2022-10-08T09:14:32.549Z,101075.38
2022-10-08T09:16:36.073Z,101069.56
2022-10-08T09:18:37.766Z,101076.88
2022-10-08T09:20:40.350Z,101078.03
2022-10-08T09:22:42.529Z,101073.94
2022-10-08T09:24:44.370Z,101076.47
2022-10-08T09:26:47.360Z,101076.03
2022-10-08T09:28:50.670Z,101088.94
2022-10-08T09:30:52.243Z,101087.59
2022-10-08T09:32:55.487Z,101086.50
2022-10-08T09:34:57.174Z,101082.59
2022-10-08T09:37:04.973Z,101085.97
2022-10-08T09:39:15.904Z,101086.31
2022-10-08T09:41:19.362Z,101098.53
2022-10-08T09:43:22.609Z,101093.31
2022-10-08T09:45:33.310Z,101085.28
2022-10-08T09:47:35.093Z,101088.03
2022-10-08T09:49:37.235Z,101091.81
2022-10-08T09:51:42.030Z,101098.53
2022-10-08T09:53:47.208Z,101089.41
2022-10-08T09:55:52.388Z,101089.38
2022-10-08T09:57:57.475Z,101093.69
2022-10-08T10:00:02.820Z,101092.53
2022-10-08T10:02:22.348Z,101099.16
2022-10-08T10:04:31.798Z,101097.09
2022-10-08T10:06:36.826Z,101090.94
2022-10-08T10:08:51.999Z,101096.41
2022-10-08T10:10:54.524Z,101099.94
2022-10-08T10:13:04.457Z,101098.94
2022-10-08T10:15:15.231Z,101097.13
2022-10-08T10:17:28.227Z,101098.63
2022-10-08T10:19:38.333Z,101104.88
2022-10-08T10:21:46.335Z,101097.88
2022-10-08T10:23:54.388Z,101101.59
2022-10-08T10:26:04.169Z,101100.72
2022-10-08T10:28:15.990Z,101105.50
2022-10-08T10:30:21.818Z,101096.19
2022-10-08T10:32:31.699Z,101095.63
2022-10-08T10:34:41.053Z,101093.94
2022-10-08T10:36:47.553Z,101101.00
2022-10-08T10:38:53.687Z,101096.91
2022-10-08T10:41:10.035Z,101095.84
2022-10-08T10:43:33.253Z,101098.91
2022-10-08T10:45:38.653Z,101102.81
2022-10-08T10:47:40.816Z,101103.03
2022-10-08T10:49:43.229Z,101104.06
2022-10-08T10:51:55.002Z,101112.50
2022-10-08T10:54:11.377Z,101111.44
2022-10-08T10:56:16.054Z,101110.84
2022-10-08T10:58:40.343Z,101114.13
2022-10-08T11:00:53.523Z,101120.31
2022-10-08T11:02:59.591Z,101113.09
2022-10-08T11:05:07.432Z,101113.88
2022-10-08T11:07:34.228Z,101113.41
2022-10-08T11:09:44.424Z,101112.16
2022-10-08T11:11:51.682Z,101116.38
2022-10-08T11:14:11.816Z,101111.69
2022-10-08T11:16:32.840Z,101113.75
2022-10-08T11:18:41.718Z,101116.03
2022-10-08T11:20:59.354Z,101117.81
2022-10-08T11:23:07.144Z,101122.69
2022-10-08T11:25:20.605Z,101117.19
2022-10-08T11:27:34.401Z,101119.50
2022-10-08T11:29:44.179Z,101123.25
2022-10-08T11:31:48.904Z,101125.03
2022-10-08T11:33:51.204Z,101124.44
2022-10-08T11:36:12.037Z,101122.84
2022-10-08T11:38:24.361Z,101126.09
2022-10-08T11:40:30.671Z,101130.63
2022-10-08T11:42:48.269Z,101130.97
2022-10-08T11:44:50.651Z,101125.84
2022-10-08T11:46:53.789Z,101135.19
2022-10-08T11:48:56.612Z,101128.59
2022-10-08T11:51:34.688Z,101130.84
2022-10-08T11:53:36.305Z,101136.19
2022-10-08T11:55:38.569Z,101137.81
2022-10-08T11:58:09.643Z,101134.59
2022-10-08T12:00:08.631Z,101136.38
2022-10-08T12:02:25.340Z,101142.50
2022-10-08T12:04:33.568Z,101139.78
2022-10-08T12:06:35.305Z,101141.38
2022-10-08T12:08:54.824Z,101144.94
2022-10-08T12:11:40.211Z,101144.94
2022-10-08T12:13:41.783Z,101137.03
2022-10-08T12:15:54.109Z,101140.59
2022-10-08T12:17:58.614Z,101142.19
2022-10-08T12:20:04.459Z,101138.31
2022-10-08T12:22:44.771Z,101139.13
2022-10-08T12:24:55.853Z,101140.59
2022-10-08T12:27:36.393Z,101139.78
2022-10-08T12:29:53.779Z,101142.50
2022-10-08T12:32:01.674Z,101143.63
2022-10-08T12:34:14.256Z,101136.25
2022-10-08T12:36:22.775Z,101139.78
2022-10-08T12:38:36.320Z,101144.59
2022-10-08T12:40:44.049Z,101146.19
2022-10-08T12:42:52.311Z,101144.25
2022-10-08T12:45:05.800Z,101141.38
2022-10-08T12:47:17.812Z,101144.94
2022-10-08T12:49:29.364Z,101144.47
2022-10-08T12:51:40.745Z,101143.81
2022-10-08T12:53:44.041Z,101143.13
2022-10-08T12:55:48.905Z,101146.69
2022-10-08T12:57:52.215Z,101141.81
2022-10-08T12:59:54.156Z,101139.53
2022-10-08T13:01:55.703Z,101138.53
2022-10-08T13:04:17.555Z,101139.28
2022-10-08T13:06:29.360Z,101132.44
2022-10-08T13:08:36.179Z,101135.47
2022-10-08T13:10:37.740Z,101131.00
2022-10-08T13:12:39.510Z,101131.78
2022-10-08T13:14:41.161Z,101127.13
2022-10-08T13:16:46.759Z,101134.47
2022-10-08T13:18:50.247Z,101137.88
2022-10-08T13:20:59.609Z,101130.00
2022-10-08T13:23:04.278Z,101127.91
2022-10-08T13:25:34.200Z,101133.94
2022-10-08T13:27:35.991Z,101135.47
2022-10-08T13:29:37.719Z,101137.25
2022-10-08T13:31:40.738Z,101137.88
2022-10-08T13:33:42.315Z,101144.09
2022-10-08T13:35:50.249Z,101147.31
2022-10-08T13:37:53.454Z,101141.13
2022-10-08T13:39:58.506Z,101140.47
2022-10-08T13:42:02.472Z,101139.69
2022-10-08T13:44:04.142Z,101141.28
2022-10-08T13:46:05.920Z,101144.59
2022-10-08T13:48:11.620Z,101144.91
2022-10-08T13:50:13.297Z,101143.25
2022-10-08T13:52:16.479Z,101150.00
2022-10-08T13:54:22.415Z,101138.56
2022-10-08T13:56:25.315Z,101140.94
2022-10-08T13:58:26.946Z,101140.16
2022-10-08T14:00:29.540Z,101152.25
2022-10-08T14:02:31.086Z,101145.84
2022-10-08T14:04:32.722Z,101144.84
2022-10-08T14:06:35.011Z,101148.72
2022-10-08T14:08:38.308Z,101146.31
2022-10-08T14:10:40.388Z,101146.78
2022-10-08T14:12:43.465Z,101143.69
2022-10-08T14:14:45.222Z,101140.28
2022-10-08T14:16:47.096Z,101146.72
2022-10-08T14:18:48.879Z,101142.72
2022-10-08T14:20:51.224Z,101145.44
2022-10-08T14:22:55.822Z,101141.53
2022-10-08T14:24:57.406Z,101150.94
2022-10-08T14:26:58.917Z,101149.75
2022-10-08T14:29:01.977Z,101146.91
2022-10-08T14:31:03.743Z,101145.78
2022-10-08T14:33:10.308Z,101146.03
2022-10-08T14:35:13.234Z,101140.88
2022-10-08T14:37:17.029Z,101145.56
2022-10-08T14:39:18.708Z,101141.56
2022-10-08T14:41:20.356Z,101141.56
2022-10-08T14:43:22.152Z,101142.34
2022-10-08T14:45:25.174Z,101140.88
2022-10-08T14:47:26.691Z,101143.47
2022-10-08T14:49:31.127Z,101135.25
2022-10-08T14:51:32.723Z,101139.59
2022-10-08T14:53:34.337Z,101139.28
2022-10-08T14:55:49.410Z,101138.81
2022-10-08T14:57:57.668Z,101138.53
2022-10-08T14:59:59.294Z,101141.97
2022-10-08T15:02:02.295Z,101141.28
2022-10-08T15:04:04.113Z,101143.22
2022-10-08T15:06:06.065Z,101135.66
2022-10-08T15:08:07.615Z,101135.19
2022-10-08T15:10:09.535Z,101139.75
2022-10-08T15:12:11.046Z,101135.41
2022-10-08T15:14:12.597Z,101130.72
2022-10-08T15:16:14.716Z,101135.28
2022-10-08T15:18:17.853Z,101136.88
2022-10-08T15:20:19.513Z,101132.41
2022-10-08T15:22:21.401Z,101131.94
2022-10-08T15:24:23.115Z,101134.97
2022-10-08T15:26:24.682Z,101134.84
2022-10-08T15:28:26.718Z,101131.63
2022-10-08T15:30:28.322Z,101129.59
2022-10-08T15:32:30.806Z,101136.03
2022-10-08T15:34:33.756Z,101132.97
2022-10-08T15:36:37.037Z,101134.59
2022-10-08T15:38:38.754Z,101131.84
2022-10-08T15:40:40.436Z,101132.50
2022-10-08T15:42:42.053Z,101135.25
2022-10-08T15:44:43.878Z,101139.13
2022-10-08T15:46:45.993Z,101139.94
2022-10-08T15:48:51.722Z,101136.59
2022-10-08T15:50:59.425Z,101143.19
2022-10-08T15:53:00.928Z,101138.84
2022-10-08T15:55:02.624Z,101138.38
2022-10-08T15:57:05.594Z,101142.72
2022-10-08T15:59:07.413Z,101141.25
2022-10-08T16:01:10.979Z,101142.06
2022-10-08T16:03:12.574Z,101137.38
2022-10-08T16:05:14.637Z,101143.19
2022-10-08T16:07:17.686Z,101141.09
2022-10-08T16:09:21.487Z,101139.50
2022-10-08T16:11:25.163Z,101146.94
2022-10-08T16:13:26.924Z,101148.50
2022-10-08T16:15:28.476Z,101152.41
2022-10-08T16:17:29.991Z,101158.19
2022-10-08T16:19:32.941Z,101162.75
2022-10-08T16:21:36.066Z,101157.78
2022-10-08T16:23:39.046Z,101158.28
2022-10-08T16:25:45.352Z,101163.44
2022-10-08T16:27:47.359Z,101166.38
2022-10-08T16:29:48.975Z,101163.00
2022-10-08T16:31:50.468Z,101171.88
2022-10-08T16:33:55.757Z,101173.50
2022-10-08T16:36:01.773Z,101174.97
2022-10-08T16:38:03.347Z,101181.44
2022-10-08T16:40:07.837Z,101177.91
2022-10-08T16:42:09.836Z,101181.63
2022-10-08T16:44:13.167Z,101182.28
2022-10-08T16:46:19.779Z,101187.94
2022-10-08T16:48:21.428Z,101195.16
2022-10-08T16:50:23.037Z,101191.78
2022-10-08T16:52:24.879Z,101191.16
2022-10-08T16:56:34.652Z,101205.75
2022-10-08T16:58:36.460Z,101203.50
2022-10-08T17:00:38.023Z,101207.06
2022-10-08T17:02:42.186Z,101216.03
2022-10-08T17:04:43.966Z,101220.06
2022-10-08T17:06:45.897Z,101214.91
2022-10-08T17:08:47.986Z,101225.06
2022-10-08T17:10:49.564Z,101224.41
2022-10-08T17:12:53.068Z,101238.22
2022-10-08T17:14:55.861Z,101236.44
2022-10-08T17:16:57.576Z,101240.13
2022-10-08T17:19:00.876Z,101237.06
2022-10-08T17:21:04.912Z,101241.38
2022-10-08T17:23:06.502Z,101240.88
2022-10-08T17:25:09.393Z,101252.59
2022-10-08T17:27:10.964Z,101256.63
2022-10-08T17:29:14.094Z,101257.72
2022-10-08T17:31:17.687Z,101264.03
2022-10-08T17:33:21.872Z,101259.50
2022-10-08T17:35:23.505Z,101263.69
2022-10-08T17:37:25.486Z,101264.47
2022-10-08T17:39:28.016Z,101275.09
2022-10-08T17:41:31.922Z,101269.47
2022-10-08T17:43:34.069Z,101278.59
2022-10-08T17:45:37.391Z,101275.69
2022-10-08T17:47:39.185Z,101275.19
2022-10-08T17:49:40.779Z,101288.84
2022-10-08T17:51:42.789Z,101291.91
2022-10-08T17:53:45.114Z,101291.25
2022-10-08T17:55:56.735Z,101291.84
2022-10-08T17:58:00.880Z,101300.34
2022-10-08T18:00:02.931Z,101297.75
2022-10-08T18:02:06.327Z,101301.13
2022-10-08T18:04:10.594Z,101309.59
2022-10-08T18:06:12.270Z,101304.78
2022-10-08T18:08:13.839Z,101316.94
2022-10-08T18:10:15.565Z,101307.78
2022-10-08T18:12:17.262Z,101310.50
2022-10-08T18:14:19.477Z,101310.00
2022-10-08T18:16:21.654Z,101320.94
2022-10-08T18:18:24.684Z,101323.16
2022-10-08T18:20:26.282Z,101323.16
2022-10-08T18:22:27.896Z,101320.75
2022-10-08T18:24:29.468Z,101327.44
2022-10-08T18:26:32.751Z,101326.66
2022-10-08T18:28:34.810Z,101322.91
2022-10-08T18:30:36.624Z,101325.28
2022-10-08T18:32:38.262Z,101332.47
2022-10-08T18:34:41.329Z,101334.38
2022-10-08T18:36:43.324Z,101334.00
2022-10-08T18:38:46.531Z,101335.72
2022-10-08T18:40:48.178Z,101338.59
2022-10-08T18:42:50.168Z,101343.72
2022-10-08T18:44:52.196Z,101349.50
2022-10-08T18:46:54.160Z,101351.41
2022-10-08T18:48:59.270Z,101352.31
2022-10-08T18:51:08.229Z,101363.66
2022-10-08T18:53:13.075Z,101359.63
2022-10-08T18:55:15.548Z,101371.34
2022-10-08T18:57:17.181Z,101376.00
2022-10-08T18:59:19.618Z,101373.38
2022-10-08T19:01:23.816Z,101376.00
2022-10-08T19:03:26.659Z,101374.00
2022-10-08T19:05:28.823Z,101371.34
2022-10-08T19:07:32.150Z,101382.06
2022-10-08T19:09:34.418Z,101382.16
2022-10-08T19:11:44.113Z,101381.16
2022-10-08T19:13:46.944Z,101384.19
2022-10-08T19:15:48.876Z,101386.69
2022-10-08T19:17:50.838Z,101389.53
2022-10-08T19:19:52.837Z,101387.69
2022-10-08T19:21:55.365Z,101387.22
2022-10-08T19:23:59.492Z,101386.19
2022-10-08T19:26:01.674Z,101392.44
2022-10-08T19:28:03.864Z,101391.13
2022-10-08T19:30:07.122Z,101396.78
2022-10-08T19:32:09.485Z,101393.16
2022-10-08T19:34:13.929Z,101402.53
2022-10-08T19:36:16.195Z,101402.94
2022-10-08T19:38:18.170Z,101405.16
2022-10-08T19:40:21.278Z,101428.88
2022-10-08T19:42:22.951Z,101437.25
2022-10-08T19:44:24.810Z,101423.63
2022-10-08T19:46:27.610Z,101432.88
2022-10-08T19:48:29.936Z,101425.59
2022-10-08T19:50:32.068Z,101428.84
2022-10-08T19:52:33.834Z,101434.50
2022-10-08T19:54:35.931Z,101433.69
2022-10-08T19:56:39.599Z,101439.88
2022-10-08T19:58:48.306Z,101451.09
2022-10-08T20:00:58.707Z,101442.84
2022-10-08T20:03:00.720Z,101451.28
2022-10-08T20:05:02.863Z,101451.28
2022-10-08T20:07:04.819Z,101448.94
2022-10-08T20:09:08.369Z,101453.91
2022-10-08T20:11:13.673Z,101449.56
2022-10-08T20:13:17.322Z,101450.66
2022-10-08T20:15:19.342Z,101458.84
2022-10-08T20:17:21.161Z,101456.38
2022-10-08T20:19:23.069Z,101459.09
2022-10-08T20:21:25.682Z,101468.91
2022-10-08T20:23:27.853Z,101462.66
2022-10-08T20:25:29.899Z,101456.13
2022-10-08T20:27:31.789Z,101451.47
2022-10-08T20:29:35.471Z,101457.44
2022-10-08T20:31:39.993Z,101459.41
2022-10-08T20:33:42.778Z,101460.19
2022-10-08T20:35:46.880Z,101458.88
2022-10-08T20:37:48.664Z,101457.94
2022-10-08T20:39:50.617Z,101456.00
2022-10-08T20:41:52.252Z,101456.84
2022-10-08T20:43:54.082Z,101469.28
2022-10-08T20:46:00.381Z,101455.69
2022-10-08T20:48:02.044Z,101466.09
2022-10-08T20:50:05.048Z,101461.84
2022-10-08T20:52:06.992Z,101457.28
2022-10-08T20:54:11.186Z,101459.91
2022-10-08T20:56:13.434Z,101470.75
2022-10-08T20:58:15.125Z,101463.69
2022-10-08T21:00:16.781Z,101472.38
2022-10-08T21:02:20.066Z,101475.09
2022-10-08T21:04:21.900Z,101478.25
2022-10-08T21:06:25.953Z,101479.91
2022-10-08T21:08:27.931Z,101478.31
2022-10-08T21:10:29.813Z,101483.47
2022-10-08T21:12:31.395Z,101486.19
2022-10-08T21:14:32.916Z,101479.44
2022-10-08T21:16:37.704Z,101488.09
2022-10-08T21:18:41.840Z,101489.78
2022-10-08T21:20:43.393Z,101484.94
2022-10-08T21:22:45.071Z,101494.69
2022-10-08T21:24:46.865Z,101485.44
2022-10-08T21:26:48.678Z,101490.38
2022-10-08T21:28:52.275Z,101487.44
2022-10-08T21:30:53.988Z,101490.44
2022-10-08T21:32:55.959Z,101489.63
2022-10-08T21:34:59.134Z,101494.25
2022-10-08T21:37:00.992Z,101488.53
2022-10-08T21:39:04.542Z,101491.28
2022-10-08T21:41:09.311Z,101491.28
2022-10-08T21:43:11.228Z,101491.91
2022-10-08T21:45:14.949Z,101496.81
2022-10-08T21:47:16.796Z,101496.00
2022-10-08T21:49:21.513Z,101491.69
2022-10-08T21:51:25.962Z,101486.28
2022-10-08T21:53:29.620Z,101498.03
2022-10-08T21:55:33.481Z,101505.09
2022-10-08T21:57:35.185Z,101496.47
2022-10-08T21:59:37.021Z,101493.81
2022-10-08T22:01:40.995Z,101503.94
2022-10-08T22:03:42.671Z,101505.03
2022-10-08T22:05:50.697Z,101508.06
2022-10-08T22:07:54.240Z,101504.31
2022-10-08T22:09:56.158Z,101502.75
2022-10-08T22:11:59.135Z,101496.50
2022-10-08T22:14:00.979Z,101498.72
2022-10-08T22:16:04.172Z,101505.22
2022-10-08T22:18:05.896Z,101501.69
2022-10-08T22:20:08.110Z,101507.44
2022-10-08T22:22:09.937Z,101503.28
2022-10-08T22:24:13.065Z,101500.56
2022-10-08T22:26:17.051Z,101499.47
2022-10-08T22:28:18.799Z,101504.91
2022-10-08T22:30:20.568Z,101501.09
2022-10-08T22:32:22.153Z,101496.44
2022-10-08T22:34:23.779Z,101495.66
2022-10-08T22:36:27.989Z,101500.25
2022-10-08T22:38:30.801Z,101496.44
2022-10-08T22:40:34.083Z,101496.22
2022-10-08T22:42:35.614Z,101487.19
2022-10-08T22:44:37.346Z,101495.06
2022-10-08T22:46:39.447Z,101492.09
2022-10-08T22:48:41.548Z,101488.19
2022-10-08T22:50:43.323Z,101490.38
2022-10-08T22:52:45.269Z,101489.53
2022-10-08T22:54:47.061Z,101490.88
2022-10-08T22:56:50.132Z,101495.72
2022-10-08T22:58:52.537Z,101492.44
2022-10-08T23:00:58.275Z,101492.19
2022-10-08T23:02:59.854Z,101495.50
2022-10-08T23:05:01.661Z,101491.00
2022-10-08T23:07:03.488Z,101493.19
2022-10-08T23:09:06.862Z,101488.66
2022-10-08T23:11:09.018Z,101490.06
2022-10-08T23:13:11.997Z,101491.22
2022-10-08T23:15:13.768Z,101488.75
2022-10-08T23:17:15.643Z,101488.50
2022-10-08T23:19:17.463Z,101483.69
2022-10-08T23:21:19.081Z,101482.88
2022-10-08T23:23:20.662Z,101470.16
2022-10-08T23:25:22.219Z,101476.97
2022-10-08T23:27:23.922Z,101485.81
2022-10-08T23:29:26.971Z,101482.63
2022-10-08T23:31:30.675Z,101473.06
2022-10-08T23:33:32.385Z,101475.50
2022-10-08T23:35:33.858Z,101473.84
2022-10-08T23:37:35.567Z,101478.41
2022-10-08T23:39:42.822Z,101478.13
2022-10-08T23:41:47.275Z,101473.50
2022-10-08T23:43:50.580Z,101474.09